createdAt,value
2023-06-03T00:02:00.997Z,8.10
2023-06-03T00:04:30.686Z,8.08
2023-06-03T00:06:59.478Z,7.93
2023-06-03T00:09:28.112Z,7.92
2023-06-03T00:11:57.978Z,7.94
2023-06-03T00:14:25.786Z,8.02
2023-06-03T00:16:54.208Z,7.93
2023-06-03T00:19:22.788Z,7.74
2023-06-03T00:21:51.527Z,7.62
2023-06-03T00:24:23.858Z,7.68
2023-06-03T00:26:52.074Z,7.68
2023-06-03T00:29:22.124Z,7.63
2023-06-03T00:31:51.080Z,7.61
2023-06-03T00:34:19.200Z,7.61
2023-06-03T00:36:48.034Z,7.66
2023-06-03T00:39:16.683Z,7.70
2023-06-03T00:41:44.954Z,7.81
2023-06-03T00:44:12.993Z,7.86
2023-06-03T00:46:44.559Z,7.84
2023-06-03T00:49:12.815Z,7.81
2023-06-03T00:51:40.810Z,7.77
2023-06-03T00:54:09.352Z,7.66
2023-06-03T00:56:46.894Z,7.62
2023-06-03T00:59:19.698Z,7.51
2023-06-03T01:01:49.215Z,7.50
2023-06-03T01:04:19.718Z,7.41
2023-06-03T01:06:58.111Z,7.21
2023-06-03T01:09:35.103Z,7.22
2023-06-03T01:12:12.267Z,7.26
2023-06-03T01:14:47.832Z,7.13
2023-06-03T01:17:22.172Z,7.26
2023-06-03T01:19:52.910Z,7.11
2023-06-03T01:22:25.547Z,7.11
2023-06-03T01:25:06.775Z,7.15
2023-06-03T01:27:37.778Z,6.96
2023-06-03T01:30:09.301Z,7.03
2023-06-03T01:32:39.630Z,6.82
2023-06-03T01:35:11.183Z,6.56
2023-06-03T01:37:39.860Z,6.74
2023-06-03T01:40:10.947Z,6.74
2023-06-03T01:42:40.584Z,6.73
2023-06-03T01:45:09.635Z,6.66
2023-06-03T01:47:38.464Z,6.59
2023-06-03T01:50:08.093Z,6.44
2023-06-03T01:52:36.221Z,6.47
2023-06-03T01:55:05.373Z,6.45
2023-06-03T01:57:37.077Z,6.36
2023-06-03T02:00:07.608Z,6.50
2023-06-03T02:02:42.349Z,6.47
2023-06-03T02:05:11.676Z,6.43
2023-06-03T02:07:39.630Z,6.36
2023-06-03T02:10:10.593Z,6.28
2023-06-03T02:12:40.047Z,6.34
2023-06-03T02:15:15.492Z,6.26
2023-06-03T02:17:45.108Z,6.22
2023-06-03T02:20:13.879Z,6.24
2023-06-03T02:22:42.433Z,6.20
2023-06-03T02:25:10.869Z,6.26
2023-06-03T02:27:40.185Z,6.16
2023-06-03T02:30:14.104Z,6.01
2023-06-03T02:32:42.166Z,5.95
2023-06-03T02:35:10.669Z,5.95
2023-06-03T02:37:39.863Z,6.16
2023-06-03T02:40:10.417Z,6.03
2023-06-03T02:42:41.507Z,5.94
2023-06-03T02:45:11.633Z,5.88
2023-06-03T02:47:40.226Z,5.78
2023-06-03T02:50:10.961Z,5.85
2023-06-03T02:52:39.711Z,5.91
2023-06-03T02:55:09.798Z,5.91
2023-06-03T02:57:42.024Z,5.76
2023-06-03T03:00:12.390Z,5.74
2023-06-03T03:02:41.335Z,5.72
2023-06-03T03:05:10.260Z,5.82
2023-06-03T03:07:38.880Z,5.66
2023-06-03T03:10:08.394Z,5.51
2023-06-03T03:12:38.353Z,5.51
2023-06-03T03:15:11.414Z,5.60
2023-06-03T03:17:40.477Z,5.51
2023-06-03T03:20:09.642Z,5.60
2023-06-03T03:22:43.009Z,5.52
2023-06-03T03:25:12.300Z,5.45
2023-06-03T03:27:43.457Z,5.47
2023-06-03T03:30:13.943Z,5.44
2023-06-03T03:32:43.773Z,5.61
2023-06-03T03:35:17.090Z,5.66
2023-06-03T03:37:49.343Z,5.74
2023-06-03T03:40:20.942Z,5.81
2023-06-03T03:42:52.664Z,5.72
2023-06-03T03:45:27.943Z,5.81
2023-06-03T03:48:02.919Z,5.87
2023-06-03T03:50:44.743Z,6.00
2023-06-03T03:53:17.500Z,6.16
2023-06-03T03:55:47.752Z,6.24
2023-06-03T03:58:29.828Z,6.30
2023-06-03T04:01:10.971Z,6.35
2023-06-03T04:03:41.437Z,6.36
2023-06-03T04:06:11.710Z,6.30
2023-06-03T04:08:44.616Z,6.52
2023-06-03T04:11:20.984Z,6.66
2023-06-03T04:13:50.758Z,6.79
2023-06-03T04:16:58.308Z,6.89
2023-06-03T04:19:38.160Z,7.01
2023-06-03T04:22:23.147Z,7.06
2023-06-03T04:24:58.206Z,6.81
2023-06-03T04:27:33.308Z,6.88
2023-06-03T04:30:05.432Z,7.12
2023-06-03T04:32:36.447Z,7.23
2023-06-03T04:35:05.036Z,7.37
2023-06-03T04:37:38.039Z,7.66
2023-06-03T04:40:11.009Z,7.71
2023-06-03T04:42:42.001Z,7.90
2023-06-03T04:45:11.782Z,8.04
2023-06-03T04:47:43.490Z,8.02
2023-06-03T04:50:18.304Z,8.26
2023-06-03T04:52:48.612Z,8.32
2023-06-03T04:55:16.923Z,8.37
2023-06-03T04:57:47.185Z,8.57
2023-06-03T05:00:20.830Z,8.58
2023-06-03T05:02:57.922Z,8.62
2023-06-03T05:05:31.025Z,8.81
2023-06-03T05:07:59.167Z,8.93
2023-06-03T05:10:28.344Z,8.90
2023-06-03T05:12:58.871Z,8.99
2023-06-03T05:15:28.600Z,9.10
2023-06-03T05:18:00.855Z,9.23
2023-06-03T05:20:29.876Z,9.24
2023-06-03T05:22:58.711Z,9.34
2023-06-03T05:25:27.647Z,9.34
2023-06-03T05:28:03.822Z,9.45
2023-06-03T05:30:37.288Z,9.63
2023-06-03T05:33:08.361Z,9.70
2023-06-03T05:35:41.871Z,9.86
2023-06-03T05:38:10.266Z,9.96
2023-06-03T05:40:38.961Z,10.01
2023-06-03T05:43:07.078Z,10.03
2023-06-03T05:45:35.228Z,10.17
2023-06-03T05:48:05.003Z,10.30
2023-06-03T05:50:38.189Z,10.40
2023-06-03T05:53:08.048Z,10.50
2023-06-03T05:55:36.218Z,10.52
2023-06-03T05:58:04.274Z,10.62
2023-06-03T06:00:33.251Z,10.70
2023-06-03T06:03:01.566Z,10.77
2023-06-03T06:05:30.530Z,10.87
2023-06-03T06:08:00.513Z,10.86
2023-06-03T06:10:28.867Z,10.80
2023-06-03T06:12:57.036Z,10.89
2023-06-03T06:15:26.406Z,11.02
2023-06-03T06:17:54.821Z,11.17
2023-06-03T06:20:23.832Z,11.27
2023-06-03T06:22:52.990Z,11.34
2023-06-03T06:25:23.375Z,11.37
2023-06-03T06:27:53.250Z,11.39
2023-06-03T06:30:22.347Z,11.57
2023-06-03T06:32:51.833Z,11.70
2023-06-03T06:35:29.832Z,11.84
2023-06-03T06:38:00.131Z,11.59
2023-06-03T06:40:36.829Z,11.68
2023-06-03T06:43:10.102Z,11.90
2023-06-03T06:45:52.966Z,11.95
2023-06-03T06:48:21.978Z,12.10
2023-06-03T06:50:55.922Z,12.04
2023-06-03T06:53:36.864Z,12.23
2023-06-03T06:56:13.737Z,12.45
2023-06-03T06:58:49.506Z,12.56
2023-06-03T07:01:17.661Z,12.66
2023-06-03T07:03:49.992Z,12.83
2023-06-03T07:06:19.348Z,12.92
2023-06-03T07:08:50.790Z,13.21
2023-06-03T07:11:22.673Z,13.25
2023-06-03T07:14:01.094Z,13.32
2023-06-03T07:16:30.411Z,13.53
2023-06-03T07:18:58.705Z,13.61
2023-06-03T07:21:41.444Z,13.75
2023-06-03T07:24:12.911Z,13.80
2023-06-03T07:26:46.518Z,13.74
2023-06-03T07:29:16.202Z,13.80
2023-06-03T07:31:44.965Z,13.83
2023-06-03T07:34:18.566Z,13.84
2023-06-03T07:36:46.829Z,14.01
2023-06-03T07:39:20.044Z,13.96
2023-06-03T07:41:55.347Z,14.03
2023-06-03T07:44:46.520Z,14.31
2023-06-03T07:47:15.798Z,14.51
2023-06-03T07:49:46.626Z,14.52
2023-06-03T07:52:19.197Z,14.55
2023-06-03T07:54:47.370Z,14.78
2023-06-03T07:57:17.210Z,14.92
2023-06-03T07:59:53.302Z,15.21
2023-06-03T08:02:21.525Z,15.01
2023-06-03T08:04:50.800Z,14.96
2023-06-03T08:07:20.516Z,14.89
2023-06-03T08:09:49.545Z,14.88
2023-06-03T08:12:27.817Z,15.01
2023-06-03T08:14:56.290Z,14.78
2023-06-03T08:17:40.199Z,14.86
2023-06-03T08:20:11.243Z,15.08
2023-06-03T08:22:43.538Z,15.21
2023-06-03T08:25:12.175Z,15.19
2023-06-03T08:27:41.611Z,15.13
2023-06-03T08:30:11.114Z,15.19
2023-06-03T08:32:41.666Z,15.30
2023-06-03T08:35:12.380Z,15.38
2023-06-03T08:37:42.206Z,15.38
2023-06-03T08:40:12.059Z,15.54
2023-06-03T08:42:45.419Z,15.58
2023-06-03T08:45:14.646Z,15.64
2023-06-03T08:48:08.088Z,15.66
2023-06-03T08:50:37.332Z,15.63
2023-06-03T08:53:10.527Z,15.61
2023-06-03T08:55:39.785Z,15.84
2023-06-03T08:58:14.852Z,15.84
2023-06-03T09:00:45.938Z,15.84
2023-06-03T09:03:15.083Z,16.02
2023-06-03T09:05:44.327Z,15.73
2023-06-03T09:08:14.383Z,16.03
2023-06-03T09:10:43.290Z,16.14
2023-06-03T09:13:15.071Z,16.16
2023-06-03T09:15:44.585Z,15.94
2023-06-03T09:18:16.185Z,15.95
2023-06-03T09:20:44.274Z,16.20
2023-06-03T09:23:14.766Z,16.23
2023-06-03T09:25:43.250Z,16.16
2023-06-03T09:28:12.998Z,16.21
2023-06-03T09:30:42.412Z,16.19
2023-06-03T09:33:12.500Z,16.20
2023-06-03T09:35:40.764Z,16.15
2023-06-03T09:38:08.707Z,16.40
2023-06-03T09:40:37.565Z,16.64
2023-06-03T09:43:13.439Z,16.35
2023-06-03T09:45:43.060Z,16.45
2023-06-03T09:48:11.328Z,16.51
2023-06-03T09:50:51.589Z,16.55
2023-06-03T09:53:19.954Z,16.62
2023-06-03T09:55:47.922Z,16.85
2023-06-03T09:58:24.198Z,16.84
2023-06-03T10:00:56.255Z,16.75
2023-06-03T10:03:26.976Z,16.83
2023-06-03T10:05:55.081Z,16.60
2023-06-03T10:08:30.544Z,16.49
2023-06-03T10:10:59.585Z,16.87
2023-06-03T10:13:29.207Z,17.10
2023-06-03T10:15:59.672Z,17.14
2023-06-03T10:18:39.230Z,17.08
2023-06-03T10:21:09.827Z,17.45
2023-06-03T10:23:40.225Z,17.14
2023-06-03T10:26:09.570Z,17.16
2023-06-03T10:28:39.752Z,17.19
2023-06-03T10:31:10.046Z,17.34
2023-06-03T10:33:40.410Z,17.31
2023-06-03T10:36:10.446Z,17.11
2023-06-03T10:38:42.010Z,17.35
2023-06-03T10:41:11.121Z,17.25
2023-06-03T10:43:44.605Z,17.41
2023-06-03T10:46:13.845Z,17.48
2023-06-03T10:48:46.991Z,17.56
2023-06-03T10:51:33.612Z,17.32
2023-06-03T10:54:19.446Z,17.52
2023-06-03T10:56:54.793Z,17.57
2023-06-03T10:59:25.882Z,17.48
2023-06-03T11:02:03.124Z,17.43
2023-06-03T11:04:33.251Z,17.42
2023-06-03T11:07:03.766Z,17.35
2023-06-03T11:09:34.514Z,17.32
2023-06-03T11:12:10.199Z,17.75
2023-06-03T11:14:59.637Z,17.66
2023-06-03T11:17:28.417Z,17.83
2023-06-03T11:20:01.360Z,18.17
2023-06-03T11:22:50.550Z,18.20
2023-06-03T11:25:29.991Z,18.24
2023-06-03T11:28:36.024Z,18.31
2023-06-03T11:31:09.030Z,18.45
2023-06-03T11:33:37.544Z,18.46
2023-06-03T11:36:56.842Z,18.14
2023-06-03T11:39:25.855Z,18.30
2023-06-03T11:42:10.071Z,18.81
2023-06-03T11:44:40.632Z,18.50
2023-06-03T11:47:11.248Z,18.64
2023-06-03T11:49:41.387Z,18.60
2023-06-03T11:52:10.847Z,18.79
2023-06-03T11:54:40.312Z,19.04
2023-06-03T11:57:09.520Z,19.11
2023-06-03T11:59:43.251Z,19.20
2023-06-03T12:02:13.043Z,19.43
2023-06-03T12:04:41.690Z,19.31
2023-06-03T12:07:16.017Z,19.29
2023-06-03T12:09:44.131Z,19.79
2023-06-03T12:12:14.891Z,19.81
2023-06-03T12:14:46.083Z,19.76
2023-06-03T12:17:17.661Z,20.19
2023-06-03T12:19:48.019Z,20.85
2023-06-03T12:22:22.802Z,20.69
2023-06-03T12:24:51.508Z,21.15
2023-06-03T12:27:22.082Z,20.98
2023-06-03T12:29:52.459Z,21.97
2023-06-03T12:32:22.741Z,21.65
2023-06-03T12:34:51.533Z,23.17
2023-06-03T12:37:29.553Z,23.34
2023-06-03T12:40:00.197Z,23.49
2023-06-03T12:42:39.563Z,24.06
2023-06-03T12:45:09.077Z,22.63
2023-06-03T12:47:48.016Z,23.46
2023-06-03T12:50:17.803Z,24.98
2023-06-03T12:52:45.866Z,24.59
2023-06-03T12:55:17.043Z,24.53
2023-06-03T12:57:46.359Z,24.88
2023-06-03T13:00:17.845Z,23.70
2023-06-03T13:02:49.141Z,23.48
2023-06-03T13:05:19.382Z,24.57
2023-06-03T13:07:47.571Z,25.11
2023-06-03T13:10:17.199Z,23.82
2023-06-03T13:12:48.804Z,26.00
2023-06-03T13:15:17.797Z,25.54
2023-06-03T13:17:47.237Z,25.66
2023-06-03T13:20:17.671Z,24.84
2023-06-03T13:22:45.821Z,25.96
2023-06-03T13:25:13.915Z,25.23
2023-06-03T13:27:43.303Z,25.34
2023-06-03T13:30:13.043Z,24.80
2023-06-03T13:32:42.500Z,26.74
2023-06-03T13:35:12.200Z,27.21
2023-06-03T13:37:41.933Z,25.37
2023-06-03T13:40:11.371Z,26.76
2023-06-03T13:42:39.386Z,26.08
2023-06-03T13:45:08.722Z,25.77
2023-06-03T13:47:37.763Z,26.71
2023-06-03T13:50:06.799Z,26.07
2023-06-03T13:52:36.553Z,26.99
2023-06-03T13:55:05.393Z,27.03
2023-06-03T13:57:33.420Z,26.77
2023-06-03T14:00:01.405Z,27.25
2023-06-03T14:02:33.394Z,27.51
2023-06-03T14:05:01.567Z,27.41
2023-06-03T14:07:30.811Z,25.69
2023-06-03T14:10:01.712Z,27.71
2023-06-03T14:12:29.778Z,27.93
2023-06-03T14:14:57.725Z,27.85
2023-06-03T14:17:27.025Z,27.46
2023-06-03T14:19:55.886Z,26.99
2023-06-03T14:22:25.535Z,28.04
2023-06-03T14:24:54.954Z,28.20
2023-06-03T14:27:24.276Z,27.44
2023-06-03T14:29:52.707Z,27.55
2023-06-03T14:32:21.380Z,28.13
2023-06-03T14:34:49.476Z,28.22
2023-06-03T14:37:18.034Z,26.53
2023-06-03T14:39:47.760Z,27.19
2023-06-03T14:42:16.260Z,27.80
2023-06-03T14:45:00.170Z,28.06
2023-06-03T14:47:30.386Z,27.64
2023-06-03T14:49:58.724Z,26.31
2023-06-03T14:52:27.881Z,27.37
2023-06-03T14:54:56.870Z,27.35
2023-06-03T14:57:24.968Z,27.14
2023-06-03T14:59:54.524Z,28.15
2023-06-03T15:02:22.708Z,27.93
2023-06-03T15:04:50.809Z,24.82
2023-06-03T15:07:19.337Z,26.87
2023-06-03T15:09:47.752Z,26.80
2023-06-03T15:12:17.164Z,29.07
2023-06-03T15:14:47.283Z,28.59
2023-06-03T15:17:16.946Z,28.13
2023-06-03T15:19:45.133Z,27.53
2023-06-03T15:22:13.129Z,27.76
2023-06-03T15:24:41.337Z,29.08
2023-06-03T15:27:09.649Z,27.71
2023-06-03T15:29:38.201Z,27.88
2023-06-03T15:32:06.986Z,29.00
2023-06-03T15:34:36.885Z,27.97
2023-06-03T15:37:05.323Z,27.49
2023-06-03T15:39:33.423Z,28.41
2023-06-03T15:42:02.620Z,28.84
2023-06-03T15:44:31.894Z,28.32
2023-06-03T15:46:59.912Z,26.74
2023-06-03T15:49:29.864Z,26.51
2023-06-03T15:51:59.233Z,27.91
2023-06-03T15:54:28.148Z,27.60
2023-06-03T15:56:56.110Z,27.57
2023-06-03T15:59:24.670Z,25.26
2023-06-03T16:01:52.899Z,26.98
2023-06-03T16:04:20.964Z,27.64
2023-06-03T16:06:48.957Z,28.14
2023-06-03T16:09:18.504Z,28.85
2023-06-03T16:11:46.677Z,29.74
2023-06-03T16:14:14.648Z,29.47
2023-06-03T16:16:42.668Z,28.42
2023-06-03T16:19:10.731Z,28.19
2023-06-03T16:21:38.838Z,28.37
2023-06-03T16:24:08.134Z,29.39
2023-06-03T16:26:43.574Z,28.26
2023-06-03T16:29:11.865Z,28.52
2023-06-03T16:31:39.887Z,27.53
2023-06-03T16:34:10.469Z,27.48
2023-06-03T16:36:39.296Z,28.39
2023-06-03T16:39:07.374Z,26.97
2023-06-03T16:41:37.435Z,27.05
2023-06-03T16:44:05.851Z,27.35
2023-06-03T16:46:34.054Z,28.24
2023-06-03T16:49:03.881Z,27.20
2023-06-03T16:51:32.693Z,26.55
2023-06-03T16:54:00.599Z,27.45
2023-06-03T16:56:29.141Z,27.27
2023-06-03T16:58:58.539Z,27.39
2023-06-03T17:01:27.243Z,26.62
2023-06-03T17:03:57.633Z,27.60
2023-06-03T17:06:25.715Z,26.39
2023-06-03T17:08:54.718Z,25.71
2023-06-03T17:11:22.845Z,26.39
2023-06-03T17:13:51.269Z,26.75
2023-06-03T17:16:21.742Z,26.62
2023-06-03T17:18:51.279Z,25.98
2023-06-03T17:21:20.962Z,27.15
2023-06-03T17:23:50.253Z,26.80
2023-06-03T17:26:18.575Z,28.19
2023-06-03T17:28:47.203Z,26.91
2023-06-03T17:31:15.891Z,27.06
2023-06-03T17:33:47.446Z,25.86
2023-06-03T17:36:16.367Z,25.16
2023-06-03T17:38:45.019Z,26.08
2023-06-03T17:41:14.509Z,25.78
2023-06-03T17:43:44.462Z,25.84
2023-06-03T17:46:13.009Z,25.99
2023-06-03T17:48:41.699Z,26.40
2023-06-03T17:51:11.516Z,26.53
2023-06-03T17:53:39.883Z,26.25
2023-06-03T17:56:08.552Z,25.23
2023-06-03T17:58:37.548Z,24.73
2023-06-03T18:01:05.835Z,25.05
2023-06-03T18:03:33.901Z,25.58
2023-06-03T18:06:02.309Z,24.85
2023-06-03T18:08:31.782Z,24.43
2023-06-03T18:10:59.637Z,24.87
2023-06-03T18:13:28.552Z,25.02
2023-06-03T18:15:56.620Z,24.09
2023-06-03T18:18:25.586Z,23.85
2023-06-03T18:20:53.587Z,22.96
2023-06-03T18:23:23.579Z,21.40
2023-06-03T18:25:53.603Z,20.81
2023-06-03T18:28:21.566Z,20.08
2023-06-03T18:30:49.733Z,19.86
2023-06-03T18:33:19.476Z,20.06
2023-06-03T18:35:47.444Z,20.49
2023-06-03T18:38:15.961Z,21.10
2023-06-03T18:40:43.955Z,21.69
2023-06-03T18:43:13.357Z,20.09
2023-06-03T18:45:42.546Z,19.61
2023-06-03T18:48:11.500Z,19.04
2023-06-03T18:50:39.776Z,18.58
2023-06-03T18:53:08.416Z,18.28
2023-06-03T18:55:36.369Z,18.51
2023-06-03T18:58:05.481Z,18.71
2023-06-03T19:00:37.067Z,18.93
2023-06-03T19:03:11.054Z,19.33
2023-06-03T19:05:46.690Z,19.42
2023-06-03T19:08:20.361Z,18.99
2023-06-03T19:10:49.718Z,19.04
2023-06-03T19:13:18.027Z,18.59
2023-06-03T19:15:48.057Z,18.06
2023-06-03T19:18:16.481Z,17.64
2023-06-03T19:20:46.413Z,17.15
2023-06-03T19:23:14.774Z,16.84
2023-06-03T19:25:43.813Z,16.75
2023-06-03T19:28:12.384Z,16.56
2023-06-03T19:30:40.733Z,16.37
2023-06-03T19:33:10.173Z,16.21
2023-06-03T19:35:38.829Z,15.99
2023-06-03T19:38:07.513Z,15.97
2023-06-03T19:40:35.901Z,15.71
2023-06-03T19:43:04.355Z,15.51
2023-06-03T19:45:32.551Z,15.12
2023-06-03T19:48:01.853Z,14.84
2023-06-03T19:50:34.377Z,14.34
2023-06-03T19:53:02.345Z,13.95
2023-06-03T19:55:30.280Z,13.69
2023-06-03T19:57:58.842Z,13.46
2023-06-03T20:00:26.870Z,13.25
2023-06-03T20:02:55.621Z,13.17
2023-06-03T20:05:24.089Z,13.18
2023-06-03T20:07:53.435Z,12.98
2023-06-03T20:10:21.928Z,12.73
2023-06-03T20:12:50.380Z,12.68
2023-06-03T20:15:18.521Z,12.67
2023-06-03T20:17:48.075Z,12.73
2023-06-03T20:20:19.232Z,12.42
2023-06-03T20:22:47.228Z,12.27
2023-06-03T20:25:17.091Z,12.24
2023-06-03T20:27:46.517Z,12.29
2023-06-03T20:30:16.133Z,12.06
2023-06-03T20:32:44.383Z,11.98
2023-06-03T20:35:12.431Z,11.92
2023-06-03T20:37:40.387Z,11.84
2023-06-03T20:40:10.534Z,11.74
2023-06-03T20:42:39.980Z,11.89
2023-06-03T20:45:09.972Z,11.96
2023-06-03T20:47:37.966Z,11.85
2023-06-03T20:50:07.287Z,11.84
2023-06-03T20:52:35.856Z,11.77
2023-06-03T20:55:03.916Z,11.63
2023-06-03T20:57:31.889Z,11.66
2023-06-03T21:00:02.440Z,11.38
2023-06-03T21:02:30.403Z,11.40
2023-06-03T21:04:58.367Z,11.39
2023-06-03T21:07:26.830Z,11.29
2023-06-03T21:09:54.787Z,11.32
2023-06-03T21:12:23.363Z,11.18
2023-06-03T21:14:52.858Z,11.19
2023-06-03T21:17:22.369Z,11.19
2023-06-03T21:19:50.561Z,11.00
2023-06-03T21:22:18.983Z,10.98
2023-06-03T21:24:49.019Z,10.89
2023-06-03T21:27:17.301Z,10.70
2023-06-03T21:29:46.345Z,10.75
2023-06-03T21:32:14.432Z,10.82
2023-06-03T21:34:43.999Z,10.84
2023-06-03T21:37:11.995Z,10.58
2023-06-03T21:39:40.580Z,10.56
2023-06-03T21:42:09.584Z,10.31
2023-06-03T21:44:37.899Z,10.35
2023-06-03T21:47:06.327Z,10.28
2023-06-03T21:49:35.333Z,10.20
2023-06-03T21:52:04.711Z,10.22
2023-06-03T21:54:33.172Z,10.04
2023-06-03T21:57:01.620Z,10.19
2023-06-03T21:59:31.155Z,10.06
2023-06-03T22:01:59.557Z,9.91
2023-06-03T22:04:28.379Z,10.04
2023-06-03T22:06:56.521Z,9.92
2023-06-03T22:09:25.882Z,9.93
2023-06-03T22:11:54.508Z,9.72
2023-06-03T22:14:22.458Z,9.78
2023-06-03T22:16:50.891Z,9.78
2023-06-03T22:19:19.485Z,9.94
2023-06-03T22:21:47.918Z,9.98
2023-06-03T22:24:15.927Z,9.75
2023-06-03T22:26:46.261Z,9.71
2023-06-03T22:29:14.234Z,9.52
2023-06-03T22:31:42.675Z,9.50
2023-06-03T22:34:11.701Z,9.31
2023-06-03T22:36:39.707Z,9.56
2023-06-03T22:39:09.274Z,9.49
2023-06-03T22:41:37.760Z,9.52
2023-06-03T22:44:07.578Z,9.58
2023-06-03T22:46:36.521Z,9.68
2023-06-03T22:49:04.570Z,9.62
2023-06-03T22:51:33.069Z,9.44
2023-06-03T22:54:01.328Z,9.30
2023-06-03T22:56:29.408Z,9.31
2023-06-03T22:58:58.680Z,9.29
2023-06-03T23:01:28.030Z,9.17
2023-06-03T23:03:56.558Z,9.06
2023-06-03T23:06:24.566Z,9.27
2023-06-03T23:08:52.557Z,9.14
2023-06-03T23:11:20.526Z,9.23
2023-06-03T23:13:49.356Z,8.98
2023-06-03T23:16:17.355Z,8.85
2023-06-03T23:18:47.328Z,8.75
2023-06-03T23:21:16.252Z,8.91
2023-06-03T23:23:44.263Z,8.77
2023-06-03T23:26:12.787Z,8.81
2023-06-03T23:28:41.350Z,8.95
2023-06-03T23:31:09.758Z,9.07
2023-06-03T23:33:38.143Z,9.15
2023-06-03T23:36:08.608Z,8.89
2023-06-03T23:38:36.703Z,8.65
2023-06-03T23:41:05.488Z,8.70
2023-06-03T23:43:33.644Z,8.44
2023-06-03T23:46:01.707Z,8.45
2023-06-03T23:48:30.683Z,8.70
2023-06-03T23:50:58.639Z,8.69
2023-06-03T23:53:28.464Z,8.61
2023-06-03T23:55:56.866Z,8.70
2023-06-03T23:58:24.886Z,8.45
